createdAt,value
2022-09-13T00:01:48.599Z,100648.00
2022-09-13T00:04:18.762Z,100642.00
2022-09-13T00:06:48.903Z,100640.00
2022-09-13T00:09:19.073Z,100631.00
2022-09-13T00:11:49.180Z,100636.00
2022-09-13T00:14:19.389Z,100632.00
2022-09-13T00:16:52.114Z,100628.00
2022-09-13T00:19:22.543Z,100627.00
2022-09-13T00:21:52.733Z,100627.00
2022-09-13T00:24:23.015Z,100609.00
2022-09-13T00:26:53.123Z,100615.00
2022-09-13T00:29:23.443Z,100611.00
2022-09-13T00:31:56.633Z,100607.00
2022-09-13T00:34:26.929Z,100603.00
2022-09-13T00:36:57.055Z,100593.00
2022-09-13T00:39:27.232Z,100598.00
2022-09-13T00:41:57.402Z,100592.00
2022-09-13T00:45:00.468Z,100579.00
2022-09-13T00:47:39.013Z,100582.00
2022-09-13T00:50:17.187Z,100580.00
2022-09-13T00:52:53.551Z,100563.00
2022-09-13T00:55:29.377Z,100558.00
2022-09-13T00:58:06.765Z,100554.00
2022-09-13T01:00:37.163Z,100551.00
2022-09-13T01:03:13.723Z,100540.00
2022-09-13T01:05:49.531Z,100543.00
2022-09-13T01:08:22.571Z,100535.00
2022-09-13T01:10:54.725Z,100538.00
2022-09-13T01:13:27.657Z,100542.00
2022-09-13T01:15:58.048Z,100537.00
2022-09-13T01:18:31.064Z,100537.00
2022-09-13T01:21:33.575Z,100527.00
2022-09-13T01:24:45.425Z,100533.00
2022-09-13T01:27:36.096Z,100534.00
2022-09-13T01:30:20.392Z,100531.00
2022-09-13T01:33:15.717Z,100522.00
2022-09-13T01:35:53.917Z,100517.00
2022-09-13T01:38:49.042Z,100522.00
2022-09-13T01:41:37.517Z,100514.00
2022-09-13T01:44:19.077Z,100520.00
2022-09-13T01:46:59.981Z,100522.00
2022-09-13T01:49:37.594Z,100524.00
2022-09-13T01:52:17.965Z,100521.00
2022-09-13T01:54:56.873Z,100521.00
2022-09-13T01:57:33.650Z,100507.00
2022-09-13T02:00:10.311Z,100510.00
2022-09-13T02:02:46.625Z,100497.00
2022-09-13T02:05:22.089Z,100478.00
2022-09-13T02:08:00.817Z,100487.00
2022-09-13T02:10:37.009Z,100479.00
2022-09-13T02:13:11.307Z,100480.00
2022-09-13T02:15:47.296Z,100476.00
2022-09-13T02:18:27.017Z,100476.00
2022-09-13T02:21:01.592Z,100476.00
2022-09-13T02:23:41.158Z,100470.00
2022-09-13T02:26:12.817Z,100466.00
2022-09-13T02:28:50.161Z,100477.00
2022-09-13T02:31:28.385Z,100469.00
2022-09-13T02:34:06.236Z,100451.00
2022-09-13T02:36:40.871Z,100473.00
2022-09-13T02:39:13.743Z,100462.00
2022-09-13T02:41:51.101Z,100458.00
2022-09-13T02:44:31.175Z,100461.00
2022-09-13T02:47:18.968Z,100462.00
2022-09-13T02:50:01.743Z,100454.00
2022-09-13T02:52:43.368Z,100458.00
2022-09-13T02:55:21.982Z,100451.00
2022-09-13T02:58:02.528Z,100437.00
2022-09-13T03:00:33.151Z,100423.00
2022-09-13T03:03:09.846Z,100416.00
2022-09-13T03:05:42.730Z,100418.00
2022-09-13T03:08:15.872Z,100424.00
2022-09-13T03:11:00.692Z,100426.00
2022-09-13T03:13:57.997Z,100420.00
2022-09-13T03:16:48.555Z,100413.00
2022-09-13T03:19:44.969Z,100404.00
2022-09-13T03:22:53.417Z,100396.00
2022-09-13T03:25:37.535Z,100389.00
2022-09-13T03:28:21.356Z,100379.00
2022-09-13T03:30:58.157Z,100372.00
2022-09-13T03:33:34.779Z,100366.00
2022-09-13T03:36:12.461Z,100369.00
2022-09-13T03:38:56.798Z,100367.00
2022-09-13T03:41:34.097Z,100366.00
2022-09-13T03:44:09.065Z,100362.00
2022-09-13T03:46:43.505Z,100377.00
2022-09-13T03:49:18.365Z,100364.00
2022-09-13T03:51:52.994Z,100378.00
2022-09-13T03:54:27.204Z,100379.00
2022-09-13T03:57:15.360Z,100368.00
2022-09-13T03:59:49.995Z,100378.00
2022-09-13T04:02:21.281Z,100373.00
2022-09-13T04:04:51.472Z,100375.00
2022-09-13T04:07:23.788Z,100362.00
2022-09-13T04:09:56.571Z,100368.00
2022-09-13T04:12:27.234Z,100372.00
2022-09-13T04:14:57.377Z,100350.00
2022-09-13T04:17:27.563Z,100349.00
2022-09-13T04:19:57.753Z,100346.00
2022-09-13T04:22:27.989Z,100342.00
2022-09-13T04:25:02.631Z,100339.00
2022-09-13T04:27:33.039Z,100332.00
2022-09-13T04:30:03.203Z,100316.00
2022-09-13T04:32:33.904Z,100324.00
2022-09-13T04:35:04.026Z,100339.00
2022-09-13T04:37:34.160Z,100325.00
2022-09-13T04:40:08.547Z,100319.00
2022-09-13T04:42:38.963Z,100321.00
2022-09-13T04:45:11.000Z,100323.00
2022-09-13T04:47:41.137Z,100318.00
2022-09-13T04:50:12.737Z,100315.00
2022-09-13T04:52:42.881Z,100307.00
2022-09-13T04:55:15.990Z,100299.00
2022-09-13T04:57:46.131Z,100297.00
2022-09-13T05:00:17.327Z,100295.00
2022-09-13T05:02:47.450Z,100301.00
2022-09-13T05:05:17.890Z,100293.00
2022-09-13T05:07:48.498Z,100289.00
2022-09-13T05:10:21.819Z,100296.00
2022-09-13T05:12:51.959Z,100291.00
2022-09-13T05:15:22.070Z,100290.00
2022-09-13T05:17:54.461Z,100288.00
2022-09-13T05:20:24.695Z,100288.00
2022-09-13T05:22:54.764Z,100290.00
2022-09-13T05:25:27.695Z,100288.00
2022-09-13T05:27:58.422Z,100296.00
2022-09-13T05:30:29.062Z,100289.00
2022-09-13T05:32:59.201Z,100291.00
2022-09-13T05:35:29.401Z,100280.00
2022-09-13T05:37:59.614Z,100274.00
2022-09-13T05:40:32.539Z,100279.00
2022-09-13T05:43:02.737Z,100263.00
2022-09-13T05:45:32.963Z,100254.00
2022-09-13T05:48:03.111Z,100265.00
2022-09-13T05:50:57.272Z,100264.00
2022-09-13T05:53:23.320Z,100263.00
2022-09-13T05:55:56.051Z,100262.00
2022-09-13T05:58:26.474Z,100262.00
2022-09-13T06:00:57.834Z,100259.00
2022-09-13T06:03:28.638Z,100265.00
2022-09-13T06:05:59.843Z,100266.00
2022-09-13T06:08:32.235Z,100264.00
2022-09-13T06:11:06.767Z,100253.00
2022-09-13T06:13:37.800Z,100255.00
2022-09-13T06:16:11.134Z,100261.00
2022-09-13T06:18:42.338Z,100270.00
2022-09-13T06:21:18.111Z,100285.00
2022-09-13T06:23:48.766Z,100288.00
2022-09-13T06:26:23.720Z,100291.00
2022-09-13T06:28:57.472Z,100287.00
2022-09-13T06:31:30.588Z,100280.00
2022-09-13T06:34:03.474Z,100289.00
2022-09-13T06:36:34.171Z,100295.00
2022-09-13T06:39:06.579Z,100292.00
2022-09-13T06:41:40.137Z,100292.00
2022-09-13T06:44:10.332Z,100279.00
2022-09-13T06:46:40.475Z,100287.00
2022-09-13T06:49:12.550Z,100296.00
2022-09-13T06:51:43.033Z,100292.00
2022-09-13T06:54:13.125Z,100307.00
2022-09-13T06:56:46.261Z,100309.00
2022-09-13T06:59:16.341Z,100297.00
2022-09-13T07:01:47.856Z,100283.00
2022-09-13T07:04:20.397Z,100279.00
2022-09-13T07:06:52.726Z,100276.00
2022-09-13T07:09:25.122Z,100278.00
2022-09-13T07:11:59.194Z,100267.00
2022-09-13T07:14:31.556Z,100262.00
2022-09-13T07:17:01.725Z,100268.00
2022-09-13T07:19:32.609Z,100265.00
2022-09-13T07:22:03.267Z,100260.00
2022-09-13T07:24:33.478Z,100256.00
2022-09-13T07:27:06.250Z,100252.00
2022-09-13T07:29:36.455Z,100251.00
2022-09-13T07:32:06.649Z,100242.00
2022-09-13T07:34:36.903Z,100245.00
2022-09-13T07:37:07.157Z,100248.00
2022-09-13T07:39:37.466Z,100242.00
2022-09-13T07:42:10.444Z,100242.00
2022-09-13T07:44:40.642Z,100245.00
2022-09-13T07:47:10.781Z,100247.00
2022-09-13T07:49:40.941Z,100244.00
2022-09-13T07:52:11.096Z,100249.00
2022-09-13T07:54:41.245Z,100249.00
2022-09-13T07:57:13.962Z,100251.00
2022-09-13T07:59:44.127Z,100249.00
2022-09-13T08:02:14.485Z,100248.00
2022-09-13T08:04:44.742Z,100251.00
2022-09-13T08:07:14.985Z,100247.00
2022-09-13T08:09:45.181Z,100240.00
2022-09-13T08:12:17.944Z,100242.00
2022-09-13T08:14:48.243Z,100239.00
2022-09-13T08:17:18.374Z,100225.00
2022-09-13T08:19:48.596Z,100229.00
2022-09-13T08:22:18.749Z,100221.00
2022-09-13T08:24:48.846Z,100221.00
2022-09-13T08:27:21.773Z,100222.00
2022-09-13T08:29:51.939Z,100229.00
2022-09-13T08:32:22.013Z,100217.00
2022-09-13T08:34:53.148Z,100224.00
2022-09-13T08:37:23.393Z,100220.00
2022-09-13T08:39:53.633Z,100219.00
2022-09-13T08:42:47.073Z,100224.00
2022-09-13T08:45:17.837Z,100210.00
2022-09-13T08:47:54.736Z,100229.00
2022-09-13T08:50:30.517Z,100227.00
2022-09-13T08:53:11.656Z,100231.00
2022-09-13T08:55:54.540Z,100232.00
2022-09-13T08:59:02.080Z,100245.00
2022-09-13T09:01:48.591Z,100234.00
2022-09-13T09:04:39.364Z,100230.00
2022-09-13T09:07:16.601Z,100229.00
2022-09-13T09:09:53.073Z,100225.00
2022-09-13T09:12:32.337Z,100225.00
2022-09-13T09:15:13.092Z,100212.00
2022-09-13T09:17:53.367Z,100216.00
2022-09-13T09:20:32.967Z,100220.00
2022-09-13T09:23:07.858Z,100216.00
2022-09-13T09:25:38.542Z,100217.00
2022-09-13T09:28:16.738Z,100221.00
2022-09-13T09:31:02.308Z,100216.00
2022-09-13T09:33:55.177Z,100218.00
2022-09-13T09:36:38.924Z,100218.00
2022-09-13T09:39:13.050Z,100220.00
2022-09-13T09:41:44.225Z,100213.00
2022-09-13T09:44:22.103Z,100223.00
2022-09-13T09:47:00.742Z,100230.00
2022-09-13T09:49:49.114Z,100206.00
2022-09-13T09:52:26.767Z,100218.00
2022-09-13T09:54:59.984Z,100207.00
2022-09-13T09:57:57.399Z,100206.00
2022-09-13T10:00:30.417Z,100202.00
2022-09-13T10:03:07.663Z,100200.00
2022-09-13T10:05:38.729Z,100207.00
2022-09-13T10:08:11.745Z,100200.00
2022-09-13T10:10:46.336Z,100190.00
2022-09-13T10:13:19.851Z,100202.00
2022-09-13T10:15:58.317Z,100187.00
2022-09-13T10:18:44.085Z,100182.00
2022-09-13T10:21:27.118Z,100185.00
2022-09-13T10:24:23.321Z,100173.00
2022-09-13T10:26:53.639Z,100181.00
2022-09-13T10:29:24.177Z,100182.00
2022-09-13T10:31:58.120Z,100175.00
2022-09-13T10:34:36.281Z,100176.00
2022-09-13T10:37:14.936Z,100191.00
2022-09-13T10:39:58.457Z,100181.00
2022-09-13T10:42:31.642Z,100189.00
2022-09-13T10:45:04.569Z,100183.00
2022-09-13T10:47:37.751Z,100172.00
2022-09-13T10:50:26.625Z,100179.00
2022-09-13T10:52:58.782Z,100171.00
2022-09-13T10:55:36.065Z,100166.00
2022-09-13T10:58:21.721Z,100170.00
2022-09-13T11:01:29.527Z,100172.00
2022-09-13T11:04:29.816Z,100163.00
2022-09-13T11:07:16.445Z,100161.00
2022-09-13T11:09:55.917Z,100156.00
2022-09-13T11:12:34.506Z,100157.00
2022-09-13T11:15:19.035Z,100175.00
2022-09-13T11:18:31.589Z,100176.00
2022-09-13T11:21:15.454Z,100167.00
2022-09-13T11:24:10.693Z,100173.00
2022-09-13T11:26:52.027Z,100162.00
2022-09-13T11:29:50.846Z,100162.00
2022-09-13T11:32:34.805Z,100160.00
2022-09-13T11:35:30.008Z,100163.00
2022-09-13T11:38:09.596Z,100165.00
2022-09-13T11:40:50.941Z,100160.00
2022-09-13T11:43:39.710Z,100154.00
2022-09-13T11:46:19.605Z,100155.00
2022-09-13T11:49:21.353Z,100148.00
2022-09-13T11:52:01.748Z,100158.00
2022-09-13T11:54:51.124Z,100160.00
2022-09-13T11:57:30.227Z,100159.00
2022-09-13T12:00:07.905Z,100158.00
2022-09-13T12:02:47.473Z,100160.00
2022-09-13T12:05:23.875Z,100158.00
2022-09-13T12:08:00.714Z,100146.00
2022-09-13T12:10:35.582Z,100147.00
2022-09-13T12:13:15.259Z,100158.00
2022-09-13T12:15:47.839Z,100155.00
2022-09-13T12:18:23.312Z,100146.00
2022-09-13T12:20:57.357Z,100162.00
2022-09-13T12:23:34.737Z,100152.00
2022-09-13T12:26:10.631Z,100150.00
2022-09-13T12:28:49.567Z,100159.00
2022-09-13T12:31:25.414Z,100160.00
2022-09-13T12:33:56.557Z,100150.00
2022-09-13T12:37:02.635Z,100161.00
2022-09-13T12:40:15.412Z,100157.00
2022-09-13T12:43:18.705Z,100156.00
2022-09-13T12:46:24.271Z,100159.00
2022-09-13T12:49:04.845Z,100152.00
2022-09-13T12:52:05.841Z,100154.00
2022-09-13T12:54:58.117Z,100148.00
2022-09-13T12:57:42.356Z,100152.00
2022-09-13T13:00:24.869Z,100155.00
2022-09-13T13:03:12.083Z,100157.00
2022-09-13T13:05:47.759Z,100154.00
2022-09-13T13:08:32.887Z,100149.00
2022-09-13T13:11:07.267Z,100143.00
2022-09-13T13:13:42.681Z,100138.00
2022-09-13T13:16:33.159Z,100142.00
2022-09-13T13:19:07.556Z,100138.00
2022-09-13T13:21:41.820Z,100144.00
2022-09-13T13:24:44.388Z,100137.00
2022-09-13T13:27:47.578Z,100125.00
2022-09-13T13:30:56.520Z,100144.00
2022-09-13T13:33:32.114Z,100128.00
2022-09-13T13:36:24.988Z,100129.00
2022-09-13T13:38:56.077Z,100126.00
2022-09-13T13:41:45.205Z,100134.00
2022-09-13T13:44:59.625Z,100130.00
2022-09-13T13:48:15.954Z,100126.00
2022-09-13T13:51:23.857Z,100119.00
2022-09-13T13:54:05.896Z,100129.00
2022-09-13T13:56:49.314Z,100122.00
2022-09-13T13:59:30.845Z,100115.00
2022-09-13T14:02:02.811Z,100115.00
2022-09-13T14:05:03.773Z,100108.00
2022-09-13T14:08:05.571Z,100106.00
2022-09-13T14:10:48.199Z,100116.00
2022-09-13T14:13:46.869Z,100115.00
2022-09-13T14:16:36.732Z,100119.00
2022-09-13T14:19:27.044Z,100115.00
2022-09-13T14:22:17.485Z,100114.00
2022-09-13T14:24:51.712Z,100115.00
2022-09-13T14:27:25.391Z,100109.00
2022-09-13T14:29:58.661Z,100117.00
2022-09-13T14:32:38.492Z,100116.00
2022-09-13T14:35:29.048Z,100104.00
2022-09-13T14:38:00.635Z,100095.00
2022-09-13T14:40:33.633Z,100096.00
2022-09-13T14:43:03.901Z,100104.00
2022-09-13T14:45:39.010Z,100100.00
2022-09-13T14:48:15.813Z,100106.00
2022-09-13T14:50:54.256Z,100108.00
2022-09-13T14:53:28.478Z,100105.00
2022-09-13T14:56:06.966Z,100102.00
2022-09-13T14:58:49.459Z,100109.00
2022-09-13T15:01:22.467Z,100109.00
2022-09-13T15:03:52.856Z,100102.00
2022-09-13T15:06:27.244Z,100101.00
2022-09-13T15:09:01.273Z,100087.00
2022-09-13T15:11:39.833Z,100086.00
2022-09-13T15:14:27.984Z,100097.00
2022-09-13T15:17:03.032Z,100094.00
2022-09-13T15:19:47.081Z,100099.00
2022-09-13T15:22:27.426Z,100095.00
2022-09-13T15:25:00.544Z,100075.00
2022-09-13T15:27:42.647Z,100073.00
2022-09-13T15:30:27.667Z,100080.00
2022-09-13T15:33:22.804Z,100062.00
2022-09-13T15:35:53.749Z,100065.00
2022-09-13T15:38:30.929Z,100062.00
2022-09-13T15:41:05.520Z,100060.00
2022-09-13T15:43:38.269Z,100065.00
2022-09-13T15:46:09.310Z,100062.00
2022-09-13T15:48:39.796Z,100061.00
2022-09-13T15:51:13.676Z,100055.00
2022-09-13T15:53:47.298Z,100061.00
2022-09-13T15:56:20.761Z,100064.00
2022-09-13T15:58:53.541Z,100068.00
2022-09-13T16:01:25.372Z,100060.00
2022-09-13T16:03:55.662Z,100066.00
2022-09-13T16:06:27.082Z,100059.00
2022-09-13T16:08:57.426Z,100062.00
2022-09-13T16:11:27.594Z,100064.00
2022-09-13T16:14:00.408Z,100060.00
2022-09-13T16:16:31.147Z,100065.00
2022-09-13T16:19:01.363Z,100061.00
2022-09-13T16:21:31.981Z,100056.00
2022-09-13T16:24:02.085Z,100055.00
2022-09-13T16:26:34.462Z,100048.00
2022-09-13T16:29:07.541Z,100051.00
2022-09-13T16:31:37.760Z,100050.00
2022-09-13T16:34:08.501Z,100055.00
2022-09-13T16:36:38.679Z,100050.00
2022-09-13T16:39:08.808Z,100048.00
2022-09-13T16:41:39.085Z,100050.00
2022-09-13T16:44:11.821Z,100049.00
2022-09-13T16:46:42.063Z,100048.00
2022-09-13T16:49:13.023Z,100051.00
2022-09-13T16:51:43.184Z,100041.00
2022-09-13T16:54:13.385Z,100055.00
2022-09-13T16:56:43.804Z,100052.00
2022-09-13T16:59:16.573Z,100059.00
2022-09-13T17:01:46.832Z,100057.00
2022-09-13T17:04:19.882Z,100059.00
2022-09-13T17:06:50.016Z,100066.00
2022-09-13T17:09:22.572Z,100047.00
2022-09-13T17:11:52.810Z,100055.00
2022-09-13T17:14:25.785Z,100051.00
2022-09-13T17:16:58.489Z,100052.00
2022-09-13T17:19:33.890Z,100064.00
2022-09-13T17:22:08.275Z,100055.00
2022-09-13T17:24:38.653Z,100053.00
2022-09-13T17:27:09.092Z,100060.00
2022-09-13T17:29:41.910Z,100060.00
2022-09-13T17:32:11.988Z,100063.00
2022-09-13T17:34:42.134Z,100062.00
2022-09-13T17:37:12.397Z,100056.00
2022-09-13T17:39:42.689Z,100056.00
2022-09-13T17:42:12.871Z,100057.00
2022-09-13T17:44:45.519Z,100053.00
2022-09-13T17:47:15.611Z,100054.00
2022-09-13T17:49:46.777Z,100059.00
2022-09-13T17:52:17.144Z,100056.00
2022-09-13T17:54:47.340Z,100049.00
2022-09-13T17:57:17.544Z,100057.00
2022-09-13T17:59:50.834Z,100050.00
2022-09-13T18:02:22.016Z,100062.00
2022-09-13T18:04:53.620Z,100064.00
2022-09-13T18:07:23.714Z,100059.00
2022-09-13T18:09:54.022Z,100068.00
2022-09-13T18:12:24.331Z,100066.00
2022-09-13T18:14:57.493Z,100068.00
2022-09-13T18:17:27.745Z,100067.00
2022-09-13T18:19:57.897Z,100074.00
2022-09-13T18:22:28.061Z,100073.00
2022-09-13T18:24:58.155Z,100073.00
2022-09-13T18:27:28.314Z,100062.00
2022-09-13T18:30:01.407Z,100055.00
2022-09-13T18:32:31.526Z,100066.00
2022-09-13T18:35:01.636Z,100066.00
2022-09-13T18:37:33.843Z,100059.00
2022-09-13T18:40:06.285Z,100073.00
2022-09-13T18:42:36.483Z,100069.00
2022-09-13T18:45:11.599Z,100073.00
2022-09-13T18:47:41.785Z,100083.00
2022-09-13T18:50:17.972Z,100080.00
2022-09-13T18:52:49.880Z,100081.00
2022-09-13T18:55:19.942Z,100090.00
2022-09-13T18:57:50.129Z,100085.00
2022-09-13T19:00:24.371Z,100078.00
2022-09-13T19:03:11.373Z,100081.00
2022-09-13T19:05:43.148Z,100083.00
2022-09-13T19:08:14.306Z,100078.00
2022-09-13T19:10:44.571Z,100083.00
2022-09-13T19:13:14.758Z,100084.00
2022-09-13T19:15:47.534Z,100087.00
2022-09-13T19:18:17.901Z,100082.00
2022-09-13T19:20:48.047Z,100074.00
2022-09-13T19:23:18.314Z,100075.00
2022-09-13T19:25:48.821Z,100079.00
2022-09-13T19:28:18.999Z,100077.00
2022-09-13T19:30:52.546Z,100080.00
2022-09-13T19:33:22.868Z,100080.00
2022-09-13T19:35:53.059Z,100077.00
2022-09-13T19:38:23.399Z,100078.00
2022-09-13T19:40:59.848Z,100084.00
2022-09-13T19:43:34.588Z,100082.00
2022-09-13T19:46:09.750Z,100087.00
2022-09-13T19:48:45.051Z,100088.00
2022-09-13T19:51:17.901Z,100098.00
2022-09-13T19:53:57.327Z,100090.00
2022-09-13T19:56:29.863Z,100093.00
2022-09-13T19:59:01.340Z,100087.00
2022-09-13T20:01:36.812Z,100087.00
2022-09-13T20:04:10.085Z,100084.00
2022-09-13T20:06:42.499Z,100088.00
2022-09-13T20:09:14.056Z,100089.00
2022-09-13T20:11:45.838Z,100085.00
2022-09-13T20:14:18.006Z,100084.00
2022-09-13T20:16:51.412Z,100096.00
2022-09-13T20:19:40.573Z,100100.00
2022-09-13T20:22:12.332Z,100086.00
2022-09-13T20:24:42.813Z,100083.00
2022-09-13T20:27:13.660Z,100089.00
2022-09-13T20:29:43.948Z,100090.00
2022-09-13T20:32:16.806Z,100082.00
2022-09-13T20:34:48.089Z,100078.00
2022-09-13T20:37:18.254Z,100075.00
2022-09-13T20:39:49.009Z,100086.00
2022-09-13T20:42:19.468Z,100076.00
2022-09-13T20:44:49.674Z,100080.00
2022-09-13T20:47:22.402Z,100082.00
2022-09-13T20:49:52.688Z,100090.00
2022-09-13T20:52:22.864Z,100095.00
2022-09-13T20:54:53.209Z,100086.00
2022-09-13T20:57:23.513Z,100077.00
2022-09-13T20:59:54.402Z,100076.00
2022-09-13T21:02:27.216Z,100079.00
2022-09-13T21:04:57.471Z,100080.00
2022-09-13T21:07:39.970Z,100073.00
2022-09-13T21:10:11.337Z,100069.00
2022-09-13T21:12:41.449Z,100068.00
2022-09-13T21:15:14.395Z,100065.00
2022-09-13T21:17:47.718Z,100064.00
2022-09-13T21:20:18.455Z,100073.00
2022-09-13T21:22:48.487Z,100074.00
2022-09-13T21:25:18.785Z,100070.00
2022-09-13T21:27:49.017Z,100074.00
2022-09-13T21:30:19.283Z,100075.00
2022-09-13T21:32:52.055Z,100078.00
2022-09-13T21:35:22.169Z,100082.00
2022-09-13T21:37:52.897Z,100089.00
2022-09-13T21:40:23.221Z,100089.00
2022-09-13T21:42:53.377Z,100091.00
2022-09-13T21:45:24.088Z,100098.00
2022-09-13T21:47:56.996Z,100094.00
2022-09-13T21:50:27.279Z,100094.00
2022-09-13T21:52:57.342Z,100094.00
2022-09-13T21:55:27.587Z,100091.00
2022-09-13T21:57:57.739Z,100100.00
2022-09-13T22:00:27.926Z,100094.00
2022-09-13T22:03:00.715Z,100094.00
2022-09-13T22:05:31.204Z,100097.00
2022-09-13T22:08:01.328Z,100092.00
2022-09-13T22:10:31.548Z,100091.00
2022-09-13T22:13:01.612Z,100092.00
2022-09-13T22:15:31.666Z,100097.00
2022-09-13T22:18:04.467Z,100083.00
2022-09-13T22:20:34.624Z,100094.00
2022-09-13T22:23:04.701Z,100095.00
2022-09-13T22:25:34.817Z,100099.00
2022-09-13T22:28:05.786Z,100106.00
2022-09-13T22:30:38.175Z,100095.00
2022-09-13T22:33:10.884Z,100090.00
2022-09-13T22:35:41.087Z,100089.00
2022-09-13T22:38:11.900Z,100096.00
2022-09-13T22:40:42.073Z,100083.00
2022-09-13T22:43:12.201Z,100094.00
2022-09-13T22:45:42.365Z,100097.00
2022-09-13T22:48:18.015Z,100094.00
2022-09-13T22:50:53.687Z,100098.00
2022-09-13T22:53:25.249Z,100106.00
2022-09-13T22:55:55.957Z,100101.00
2022-09-13T22:58:26.108Z,100107.00
2022-09-13T23:01:06.314Z,100110.00
2022-09-13T23:03:40.840Z,100103.00
2022-09-13T23:06:12.049Z,100106.00
2022-09-13T23:08:43.221Z,100095.00
2022-09-13T23:11:16.172Z,100101.00
2022-09-13T23:13:47.925Z,100098.00
2022-09-13T23:16:22.968Z,100096.00
2022-09-13T23:18:56.956Z,100102.00
2022-09-13T23:21:29.397Z,100104.00
2022-09-13T23:24:00.568Z,100098.00
2022-09-13T23:26:31.412Z,100100.00
2022-09-13T23:29:04.552Z,100107.00
2022-09-13T23:31:39.047Z,100105.00
2022-09-13T23:34:14.472Z,100109.00
2022-09-13T23:36:46.751Z,100102.00
2022-09-13T23:39:19.896Z,100098.00
2022-09-13T23:41:51.995Z,100104.00
2022-09-13T23:44:23.177Z,100103.00
2022-09-13T23:46:53.648Z,100085.00
2022-09-13T23:49:26.354Z,100092.00
2022-09-13T23:51:56.484Z,100094.00
2022-09-13T23:54:26.710Z,100105.00
2022-09-13T23:56:56.889Z,100100.00
2022-09-13T23:59:27.161Z,100094.00
